sensor_id;sensor_type;location;lat;lon;timestamp;pressure;altitude;pressure_sealevel;temperature;humidity
59513;BME280;45330;51.634;5.562;2023-01-26T00:00:57;102499.41;;;-2.03;100.00
59513;BME280;45330;51.634;5.562;2023-01-26T00:03:24;102473.22;;;-2.13;100.00
59513;BME280;45330;51.634;5.562;2023-01-26T00:05:50;102490.19;;;-2.01;100.00
59513;BME280;45330;51.634;5.562;2023-01-26T00:08:15;102492.06;;;-1.99;100.00
59513;BME280;45330;51.634;5.562;2023-01-26T00:10:41;102459.38;;;-2.16;100.00
59513;BME280;45330;51.634;5.562;2023-01-26T00:13:15;102463.94;;;-2.12;100.00
59513;BME280;45330;51.634;5.562;2023-01-26T00:15:43;102475.78;;;-2.01;100.00
59513;BME280;45330;51.634;5.562;2023-01-26T00:18:08;102475.78;;;-2.01;100.00
59513;BME280;45330;51.634;5.562;2023-01-26T00:20:34;102472.13;;;-2.04;100.00
59513;BME280;45330;51.634;5.562;2023-01-26T00:22:59;102453.28;;;-2.18;100.00
59513;BME280;45330;51.634;5.562;2023-01-26T00:25:24;102472.78;;;-2.07;100.00
59513;BME280;45330;51.634;5.562;2023-01-26T00:27:50;102467.47;;;-2.10;100.00
59513;BME280;45330;51.634;5.562;2023-01-26T00:30:15;102446.38;;;-2.19;100.00
59513;BME280;45330;51.634;5.562;2023-01-26T00:32:41;102473.69;;;-2.07;100.00
59513;BME280;45330;51.634;5.562;2023-01-26T00:35:07;102468.59;;;-2.07;100.00
59513;BME280;45330;51.634;5.562;2023-01-26T00:37:33;102440.88;;;-2.26;100.00
59513;BME280;45330;51.634;5.562;2023-01-26T00:39:58;102460.47;;;-2.13;100.00
59513;BME280;45330;51.634;5.562;2023-01-26T00:42:23;102433.31;;;-2.24;100.00
59513;BME280;45330;51.634;5.562;2023-01-26T00:44:49;102441.53;;;-2.16;100.00
59513;BME280;45330;51.634;5.562;2023-01-26T00:47:16;102438.97;;;-2.16;100.00
59513;BME280;45330;51.634;5.562;2023-01-26T00:49:42;102452.72;;;-2.02;100.00
59513;BME280;45330;51.634;5.562;2023-01-26T00:52:07;102454.03;;;-1.96;100.00
59513;BME280;45330;51.634;5.562;2023-01-26T00:54:33;102446.94;;;-2.00;100.00
59513;BME280;45330;51.634;5.562;2023-01-26T00:56:58;102448.50;;;-2.02;100.00
59513;BME280;45330;51.634;5.562;2023-01-26T00:59:24;102442.16;;;-2.07;100.00
59513;BME280;45330;51.634;5.562;2023-01-26T01:01:50;102441.50;;;-2.04;100.00
59513;BME280;45330;51.634;5.562;2023-01-26T01:04:16;102402.06;;;-2.21;100.00
59513;BME280;45330;51.634;5.562;2023-01-26T01:06:42;102417.78;;;-2.15;100.00
59513;BME280;45330;51.634;5.562;2023-01-26T01:09:07;102435.09;;;-1.99;100.00
59513;BME280;45330;51.634;5.562;2023-01-26T01:11:33;102421.66;;;-2.09;100.00
59513;BME280;45330;51.634;5.562;2023-01-26T01:13:58;102410.69;;;-2.19;100.00
59513;BME280;45330;51.634;5.562;2023-01-26T01:16:24;102433.84;;;-2.04;100.00
59513;BME280;45330;51.634;5.562;2023-01-26T01:18:54;102435.63;;;-2.03;100.00
59513;BME280;45330;51.634;5.562;2023-01-26T01:21:21;102415.38;;;-2.14;100.00
59513;BME280;45330;51.634;5.562;2023-01-26T01:23:47;102429.88;;;-2.01;100.00
59513;BME280;45330;51.634;5.562;2023-01-26T01:26:13;102426.88;;;-1.95;100.00
59513;BME280;45330;51.634;5.562;2023-01-26T01:28:39;102428.75;;;-1.93;100.00
59513;BME280;45330;51.634;5.562;2023-01-26T01:31:10;102426.88;;;-1.95;100.00
59513;BME280;45330;51.634;5.562;2023-01-26T01:33:37;102423.41;;;-1.96;100.00
59513;BME280;45330;51.634;5.562;2023-01-26T01:36:04;102421.41;;;-2.00;100.00
59513;BME280;45330;51.634;5.562;2023-01-26T01:38:30;102432.28;;;-1.91;100.00
59513;BME280;45330;51.634;5.562;2023-01-26T01:40:56;102402.78;;;-1.99;100.00
59513;BME280;45330;51.634;5.562;2023-01-26T01:43:22;102432.59;;;-1.86;100.00
59513;BME280;45330;51.634;5.562;2023-01-26T01:45:48;102408.81;;;-1.98;100.00
59513;BME280;45330;51.634;5.562;2023-01-26T01:48:37;102435.03;;;-1.87;100.00
59513;BME280;45330;51.634;5.562;2023-01-26T01:51:13;102436.63;;;-1.90;100.00
59513;BME280;45330;51.634;5.562;2023-01-26T01:53:44;102426.97;;;-1.94;100.00
59513;BME280;45330;51.634;5.562;2023-01-26T01:56:14;102413.34;;;-2.06;100.00
59513;BME280;45330;51.634;5.562;2023-01-26T01:58:44;102433.84;;;-1.93;100.00
59513;BME280;45330;51.634;5.562;2023-01-26T02:01:10;102401.56;;;-2.04;100.00
59513;BME280;45330;51.634;5.562;2023-01-26T02:03:37;102425.09;;;-1.96;100.00
59513;BME280;45330;51.634;5.562;2023-01-26T02:06:25;102425.50;;;-1.90;100.00
59513;BME280;45330;51.634;5.562;2023-01-26T02:08:54;102411.91;;;-2.02;100.00
59513;BME280;45330;51.634;5.562;2023-01-26T02:11:26;102406.00;;;-2.01;100.00
59513;BME280;45330;51.634;5.562;2023-01-26T02:13:53;102408.91;;;-1.97;100.00
59513;BME280;45330;51.634;5.562;2023-01-26T02:16:19;102396.06;;;-1.98;100.00
59513;BME280;45330;51.634;5.562;2023-01-26T02:18:45;102381.41;;;-2.01;100.00
59513;BME280;45330;51.634;5.562;2023-01-26T02:21:14;102387.69;;;-1.96;100.00
59513;BME280;45330;51.634;5.562;2023-01-26T02:23:53;102387.34;;;-1.88;100.00
59513;BME280;45330;51.634;5.562;2023-01-26T02:26:25;102398.88;;;-1.82;100.00
59513;BME280;45330;51.634;5.562;2023-01-26T02:28:52;102381.47;;;-1.87;100.00
59513;BME280;45330;51.634;5.562;2023-01-26T02:31:18;102394.88;;;-1.78;100.00
59513;BME280;45330;51.634;5.562;2023-01-26T02:33:43;102374.72;;;-1.87;100.00
59513;BME280;45330;51.634;5.562;2023-01-26T02:36:29;102400.38;;;-1.72;100.00
59513;BME280;45330;51.634;5.562;2023-01-26T02:41:26;102408.25;;;-1.69;100.00
59513;BME280;45330;51.634;5.562;2023-01-26T02:44:10;102397.94;;;-1.70;100.00
59513;BME280;45330;51.634;5.562;2023-01-26T02:46:38;102391.97;;;-1.71;100.00
59513;BME280;45330;51.634;5.562;2023-01-26T02:49:03;102372.47;;;-1.82;100.00
59513;BME280;45330;51.634;5.562;2023-01-26T02:51:47;102344.44;;;-1.94;100.00
59513;BME280;45330;51.634;5.562;2023-01-26T02:54:13;102388.63;;;-1.70;100.00
59513;BME280;45330;51.634;5.562;2023-01-26T02:56:58;102393.94;;;-1.67;100.00
59513;BME280;45330;51.634;5.562;2023-01-26T02:59:23;102374.47;;;-1.78;100.00
59513;BME280;45330;51.634;5.562;2023-01-26T03:01:50;102363.81;;;-1.84;100.00
59513;BME280;45330;51.634;5.562;2023-01-26T03:04:16;102391.41;;;-1.67;100.00
59513;BME280;45330;51.634;5.562;2023-01-26T03:06:42;102363.16;;;-1.82;100.00
59513;BME280;45330;51.634;5.562;2023-01-26T03:09:07;102354.41;;;-1.85;100.00
59513;BME280;45330;51.634;5.562;2023-01-26T03:11:32;102357.38;;;-1.79;100.00
59513;BME280;45330;51.634;5.562;2023-01-26T03:14:07;102379.50;;;-1.66;100.00
59513;BME280;45330;51.634;5.562;2023-01-26T03:16:33;102388.06;;;-1.66;100.00
59513;BME280;45330;51.634;5.562;2023-01-26T03:18:58;102373.56;;;-1.79;100.00
59513;BME280;45330;51.634;5.562;2023-01-26T03:21:29;102392.16;;;-1.68;100.00
59513;BME280;45330;51.634;5.562;2023-01-26T03:24:14;102386.50;;;-1.64;100.00
59513;BME280;45330;51.634;5.562;2023-01-26T03:26:59;102378.94;;;-1.62;100.00
59513;BME280;45330;51.634;5.562;2023-01-26T03:29:43;102376.28;;;-1.64;100.00
59513;BME280;45330;51.634;5.562;2023-01-26T03:32:09;102386.91;;;-1.58;100.00
59513;BME280;45330;51.634;5.562;2023-01-26T03:34:34;102381.94;;;-1.56;100.00
59513;BME280;45330;51.634;5.562;2023-01-26T03:37:00;102392.25;;;-1.54;100.00
59513;BME280;45330;51.634;5.562;2023-01-26T03:39:25;102388.00;;;-1.54;100.00
59513;BME280;45330;51.634;5.562;2023-01-26T03:42:09;102386.34;;;-1.53;100.00
59513;BME280;45330;51.634;5.562;2023-01-26T03:44:53;102376.81;;;-1.56;100.00
59513;BME280;45330;51.634;5.562;2023-01-26T03:47:37;102365.31;;;-1.63;100.00
59513;BME280;45330;51.634;5.562;2023-01-26T03:50:20;102356.53;;;-1.66;100.00
59513;BME280;45330;51.634;5.562;2023-01-26T03:53:18;102378.91;;;-1.50;100.00
59513;BME280;45330;51.634;5.562;2023-01-26T03:56:04;102380.84;;;-1.46;100.00
59513;BME280;45330;51.634;5.562;2023-01-26T03:58:51;102352.16;;;-1.56;100.00
59513;BME280;45330;51.634;5.562;2023-01-26T04:01:18;102371.66;;;-1.44;100.00
59513;BME280;45330;51.634;5.562;2023-01-26T04:03:51;102347.06;;;-1.56;100.00
59513;BME280;45330;51.634;5.562;2023-01-26T04:06:36;102372.63;;;-1.42;100.00
59513;BME280;45330;51.634;5.562;2023-01-26T04:09:21;102350.69;;;-1.52;100.00
59513;BME280;45330;51.634;5.562;2023-01-26T04:11:47;102374.03;;;-1.34;100.00
59513;BME280;45330;51.634;5.562;2023-01-26T04:14:13;102378.06;;;-1.38;100.00
59513;BME280;45330;51.634;5.562;2023-01-26T04:16:58;102348.03;;;-1.53;100.00
59513;BME280;45330;51.634;5.562;2023-01-26T04:19:42;102351.50;;;-1.53;100.00
59513;BME280;45330;51.634;5.562;2023-01-26T04:22:27;102347.28;;;-1.52;100.00
59513;BME280;45330;51.634;5.562;2023-01-26T04:24:52;102370.81;;;-1.31;100.00
59513;BME280;45330;51.634;5.562;2023-01-26T04:27:18;102358.59;;;-1.35;100.00
59513;BME280;45330;51.634;5.562;2023-01-26T04:29:43;102347.91;;;-1.43;100.00
59513;BME280;45330;51.634;5.562;2023-01-26T04:32:09;102352.19;;;-1.42;100.00
59513;BME280;45330;51.634;5.562;2023-01-26T04:34:34;102346.13;;;-1.44;100.00
59513;BME280;45330;51.634;5.562;2023-01-26T04:36:59;102345.34;;;-1.43;100.00
59513;BME280;45330;51.634;5.562;2023-01-26T04:39:25;102367.28;;;-1.33;100.00
59513;BME280;45330;51.634;5.562;2023-01-26T04:41:50;102372.59;;;-1.30;100.00
59513;BME280;45330;51.634;5.562;2023-01-26T04:44:15;102364.38;;;-1.38;100.00
59513;BME280;45330;51.634;5.562;2023-01-26T04:46:41;102369.44;;;-1.26;100.00
59513;BME280;45330;51.634;5.562;2023-01-26T04:49:06;102380.44;;;-1.27;100.00
59513;BME280;45330;51.634;5.562;2023-01-26T04:51:32;102348.97;;;-1.40;100.00
59513;BME280;45330;51.634;5.562;2023-01-26T04:53:57;102348.09;;;-1.40;100.00
59513;BME280;45330;51.634;5.562;2023-01-26T04:56:28;102369.44;;;-1.26;100.00
59513;BME280;45330;51.634;5.562;2023-01-26T04:58:54;102383.19;;;-1.24;100.00
59513;BME280;45330;51.634;5.562;2023-01-26T05:01:20;102338.97;;;-1.36;100.00
59513;BME280;45330;51.634;5.562;2023-01-26T05:03:46;102372.31;;;-1.22;100.00
59513;BME280;45330;51.634;5.562;2023-01-26T05:06:11;102326.56;;;-1.44;100.00
59513;BME280;45330;51.634;5.562;2023-01-26T05:08:37;102366.31;;;-1.22;100.00
59513;BME280;45330;51.634;5.562;2023-01-26T05:11:03;102350.47;;;-1.30;100.00
59513;BME280;45330;51.634;5.562;2023-01-26T05:13:29;102342.63;;;-1.33;100.00
59513;BME280;45330;51.634;5.562;2023-01-26T05:15:54;102362.09;;;-1.22;100.00
59513;BME280;45330;51.634;5.562;2023-01-26T05:18:20;102370.75;;;-1.19;100.00
59513;BME280;45330;51.634;5.562;2023-01-26T05:20:46;102366.41;;;-1.21;100.00
59513;BME280;45330;51.634;5.562;2023-01-26T05:23:11;102358.75;;;-1.21;100.00
59513;BME280;45330;51.634;5.562;2023-01-26T05:25:37;102364.75;;;-1.20;100.00
59513;BME280;45330;51.634;5.562;2023-01-26T05:28:02;102348.03;;;-1.28;100.00
59513;BME280;45330;51.634;5.562;2023-01-26T05:30:28;102366.63;;;-1.17;100.00
59513;BME280;45330;51.634;5.562;2023-01-26T05:32:55;102369.06;;;-1.19;100.00
59513;BME280;45330;51.634;5.562;2023-01-26T05:35:24;102364.63;;;-1.22;100.00
59513;BME280;45330;51.634;5.562;2023-01-26T05:37:49;102368.19;;;-1.19;100.00
59513;BME280;45330;51.634;5.562;2023-01-26T05:40:14;102347.16;;;-1.29;100.00
59513;BME280;45330;51.634;5.562;2023-01-26T05:42:41;102363.28;;;-1.16;100.00
59513;BME280;45330;51.634;5.562;2023-01-26T05:45:08;102369.28;;;-1.16;100.00
59513;BME280;45330;51.634;5.562;2023-01-26T05:47:33;102347.34;;;-1.26;100.00
59513;BME280;45330;51.634;5.562;2023-01-26T05:49:59;102348.13;;;-1.27;100.00
59513;BME280;45330;51.634;5.562;2023-01-26T05:52:24;102358.84;;;-1.19;100.00
59513;BME280;45330;51.634;5.562;2023-01-26T05:54:50;102366.13;;;-1.12;100.00
59513;BME280;45330;51.634;5.562;2023-01-26T05:57:15;102343.13;;;-1.25;100.00
59513;BME280;45330;51.634;5.562;2023-01-26T05:59:43;102367.91;;;-1.11;100.00
59513;BME280;45330;51.634;5.562;2023-01-26T06:02:10;102368.78;;;-1.10;100.00
59513;BME280;45330;51.634;5.562;2023-01-26T06:04:36;102367.91;;;-1.11;100.00
59513;BME280;45330;51.634;5.562;2023-01-26T06:07:02;102348.13;;;-1.27;100.00
59513;BME280;45330;51.634;5.562;2023-01-26T06:09:27;102377.22;;;-1.11;100.00
59513;BME280;45330;51.634;5.562;2023-01-26T06:11:53;102384.13;;;-1.10;100.00
59513;BME280;45330;51.634;5.562;2023-01-26T06:14:18;102379.00;;;-1.10;100.00
59513;BME280;45330;51.634;5.562;2023-01-26T06:16:44;102367.59;;;-1.15;100.00
59513;BME280;45330;51.634;5.562;2023-01-26T06:19:09;102371.94;;;-1.14;100.00
59513;BME280;45330;51.634;5.562;2023-01-26T06:21:35;102380.97;;;-1.06;100.00
59513;BME280;45330;51.634;5.562;2023-01-26T06:24:01;102350.31;;;-1.19;100.00
59513;BME280;45330;51.634;5.562;2023-01-26T06:26:26;102356.41;;;-1.17;100.00
59513;BME280;45330;51.634;5.562;2023-01-26T06:28:52;102345.88;;;-1.22;100.00
59513;BME280;45330;51.634;5.562;2023-01-26T06:31:18;102355.31;;;-1.21;100.00
59513;BME280;45330;51.634;5.562;2023-01-26T06:33:44;102374.78;;;-1.10;100.00
59513;BME280;45330;51.634;5.562;2023-01-26T06:36:12;102385.22;;;-1.07;100.00
59513;BME280;45330;51.634;5.562;2023-01-26T06:38:43;102386.19;;;-1.05;100.00
59513;BME280;45330;51.634;5.562;2023-01-26T06:41:09;102388.56;;;-1.08;100.00
59513;BME280;45330;51.634;5.562;2023-01-26T06:43:34;102375.47;;;-1.12;100.00
59513;BME280;45330;51.634;5.562;2023-01-26T06:46:01;102383.63;;;-1.05;100.00
59513;BME280;45330;51.634;5.562;2023-01-26T06:48:29;102388.16;;;-1.00;100.00
59513;BME280;45330;51.634;5.562;2023-01-26T06:50:56;102395.06;;;-0.99;100.00
59513;BME280;45330;51.634;5.562;2023-01-26T06:53:37;102379.00;;;-1.10;100.00
59513;BME280;45330;51.634;5.562;2023-01-26T06:56:04;102379.88;;;-1.10;100.00
59513;BME280;45330;51.634;5.562;2023-01-26T06:58:30;102366.72;;;-1.16;100.00
59513;BME280;45330;51.634;5.562;2023-01-26T07:00:55;102369.28;;;-1.16;100.00
59513;BME280;45330;51.634;5.562;2023-01-26T07:03:21;102370.38;;;-1.12;100.00
59513;BME280;45330;51.634;5.562;2023-01-26T07:05:46;102396.94;;;-0.97;100.00
59513;BME280;45330;51.634;5.562;2023-01-26T07:08:12;102349.22;;;-1.23;100.00
59513;BME280;45330;51.634;5.562;2023-01-26T07:10:37;102401.34;;;-0.94;100.00
59513;BME280;45330;51.634;5.562;2023-01-26T07:13:04;102395.84;;;-1.00;100.00
59513;BME280;45330;51.634;5.562;2023-01-26T07:15:29;102408.72;;;-0.99;100.00
59513;BME280;45330;51.634;5.562;2023-01-26T07:17:56;102383.03;;;-1.14;100.00
59513;BME280;45330;51.634;5.562;2023-01-26T07:20:22;102366.63;;;-1.17;100.00
59513;BME280;45330;51.634;5.562;2023-01-26T07:22:47;102402.63;;;-1.01;100.00
59513;BME280;45330;51.634;5.562;2023-01-26T07:25:14;102409.72;;;-0.97;100.00
59513;BME280;45330;51.634;5.562;2023-01-26T07:27:39;102407.16;;;-0.97;100.00
59513;BME280;45330;51.634;5.562;2023-01-26T07:30:05;102404.28;;;-1.01;100.00
59513;BME280;45330;51.634;5.562;2023-01-26T07:32:31;102408.03;;;-0.96;100.00
59513;BME280;45330;51.634;5.562;2023-01-26T07:34:56;102381.56;;;-1.10;100.00
59513;BME280;45330;51.634;5.562;2023-01-26T07:37:22;102379.00;;;-1.10;100.00
59513;BME280;45330;51.634;5.562;2023-01-26T07:39:51;102407.34;;;-0.94;100.00
59513;BME280;45330;51.634;5.562;2023-01-26T07:42:16;102402.81;;;-0.98;100.00
59513;BME280;45330;51.634;5.562;2023-01-26T07:44:42;102411.56;;;-0.94;100.00
59513;BME280;45330;51.634;5.562;2023-01-26T07:47:07;102395.72;;;-1.02;100.00
59513;BME280;45330;51.634;5.562;2023-01-26T07:49:32;102413.53;;;-0.90;100.00
59513;BME280;45330;51.634;5.562;2023-01-26T07:51:58;102413.66;;;-0.89;100.00
59513;BME280;45330;51.634;5.562;2023-01-26T07:54:23;102427.22;;;-0.90;100.00
59513;BME280;45330;51.634;5.562;2023-01-26T07:56:52;102393.75;;;-1.06;100.00
59513;BME280;45330;51.634;5.562;2023-01-26T07:59:19;102422.88;;;-0.91;100.00
59513;BME280;45330;51.634;5.562;2023-01-26T08:01:44;102417.38;;;-0.97;100.00
59513;BME280;45330;51.634;5.562;2023-01-26T08:04:10;102440.88;;;-0.89;100.00
59513;BME280;45330;51.634;5.562;2023-01-26T08:06:36;102427.22;;;-0.90;100.00
59513;BME280;45330;51.634;5.562;2023-01-26T08:09:02;102435.06;;;-0.87;100.00
59513;BME280;45330;51.634;5.562;2023-01-26T08:11:28;102429.19;;;-0.85;100.00
59513;BME280;45330;51.634;5.562;2023-01-26T08:13:54;102408.72;;;-0.99;100.00
59513;BME280;45330;51.634;5.562;2023-01-26T08:16:20;102433.41;;;-0.86;100.00
59513;BME280;45330;51.634;5.562;2023-01-26T08:18:45;102434.41;;;-0.84;100.00
59513;BME280;45330;51.634;5.562;2023-01-26T08:21:13;102438.13;;;-0.79;100.00
59513;BME280;45330;51.634;5.562;2023-01-26T08:23:38;102429.38;;;-0.82;100.00
59513;BME280;45330;51.634;5.562;2023-01-26T08:26:06;102417.88;;;-0.89;100.00
59513;BME280;45330;51.634;5.562;2023-01-26T08:28:32;102422.00;;;-0.78;100.00
59513;BME280;45330;51.634;5.562;2023-01-26T08:31:05;102434.03;;;-0.63;100.00
59513;BME280;45330;51.634;5.562;2023-01-26T08:33:31;102434.81;;;-0.64;100.00
59513;BME280;45330;51.634;5.562;2023-01-26T08:36:04;102444.56;;;-0.59;100.00
59513;BME280;45330;51.634;5.562;2023-01-26T08:38:31;102438.56;;;-0.59;100.00
59513;BME280;45330;51.634;5.562;2023-01-26T08:40:58;102446.44;;;-0.56;100.00
59513;BME280;45330;51.634;5.562;2023-01-26T08:43:23;102426.16;;;-0.66;100.00
59513;BME280;45330;51.634;5.562;2023-01-26T08:45:49;102442.50;;;-0.51;100.00
59513;BME280;45330;51.634;5.562;2023-01-26T08:48:14;102425.50;;;-0.50;100.00
59513;BME280;45330;51.634;5.562;2023-01-26T08:50:40;102398.03;;;-0.66;100.00
59513;BME280;45330;51.634;5.562;2023-01-26T08:53:05;102441.41;;;-0.41;100.00
59513;BME280;45330;51.634;5.562;2023-01-26T08:55:31;102407.19;;;-0.57;100.00
59513;BME280;45330;51.634;5.562;2023-01-26T08:57:57;102445.38;;;-0.33;100.00
59513;BME280;45330;51.634;5.562;2023-01-26T09:00:23;102439.38;;;-0.33;100.00
59513;BME280;45330;51.634;5.562;2023-01-26T09:02:50;102443.81;;;-0.31;100.00
59513;BME280;45330;51.634;5.562;2023-01-26T09:05:21;102441.03;;;-0.21;100.00
59513;BME280;45330;51.634;5.562;2023-01-26T09:07:47;102441.81;;;-0.08;100.00
59513;BME280;45330;51.634;5.562;2023-01-26T09:10:13;102442.47;;;0.03;100.00
59513;BME280;45330;51.634;5.562;2023-01-26T09:12:39;102417.47;;;-0.02;100.00
59513;BME280;45330;51.634;5.562;2023-01-26T09:15:05;102440.00;;;0.17;100.00
59513;BME280;45330;51.634;5.562;2023-01-26T09:17:31;102442.66;;;0.19;100.00
59513;BME280;45330;51.634;5.562;2023-01-26T09:19:56;102427.44;;;0.07;100.00
59513;BME280;45330;51.634;5.562;2023-01-26T09:22:21;102450.59;;;0.24;100.00
59513;BME280;45330;51.634;5.562;2023-01-26T09:24:47;102454.66;;;0.20;100.00
59513;BME280;45330;51.634;5.562;2023-01-26T09:27:12;102444.13;;;0.15;100.00
59513;BME280;45330;51.634;5.562;2023-01-26T09:29:38;102435.97;;;0.08;100.00
59513;BME280;45330;51.634;5.562;2023-01-26T09:32:03;102450.44;;;0.21;100.00
59513;BME280;45330;51.634;5.562;2023-01-26T09:34:29;102465.41;;;0.14;100.00
59513;BME280;45330;51.634;5.562;2023-01-26T09:36:54;102461.19;;;0.02;100.00
59513;BME280;45330;51.634;5.562;2023-01-26T09:39:20;102466.31;;;0.02;100.00
59513;BME280;45330;51.634;5.562;2023-01-26T09:41:50;102461.38;;;0.05;100.00
59513;BME280;45330;51.634;5.562;2023-01-26T09:44:23;102462.25;;;0.05;100.00
59513;BME280;45330;51.634;5.562;2023-01-26T09:47:04;102459.09;;;0.09;100.00
59513;BME280;45330;51.634;5.562;2023-01-26T09:52:25;102433.06;;;0.02;100.00
59513;BME280;45330;51.634;5.562;2023-01-26T09:54:54;102445.72;;;0.13;100.00
59513;BME280;45330;51.634;5.562;2023-01-26T09:57:39;102457.88;;;0.31;100.00
59513;BME280;45330;51.634;5.562;2023-01-26T10:03:07;102465.63;;;0.46;100.00
59513;BME280;45330;51.634;5.562;2023-01-26T10:05:43;102464.84;;;0.47;100.00
59513;BME280;45330;51.634;5.562;2023-01-26T10:08:11;102460.00;;;0.51;100.00
59513;BME280;45330;51.634;5.562;2023-01-26T10:10:42;102463.34;;;0.50;100.00
59513;BME280;45330;51.634;5.562;2023-01-26T10:13:12;102451.63;;;0.54;100.00
59513;BME280;45330;51.634;5.562;2023-01-26T10:15:40;102459.41;;;0.56;100.00
59513;BME280;45330;51.634;5.562;2023-01-26T10:18:20;102452.28;;;0.65;100.00
59513;BME280;45330;51.634;5.562;2023-01-26T10:20:53;102457.94;;;0.74;100.00
59513;BME280;45330;51.634;5.562;2023-01-26T10:23:30;102449.03;;;0.82;100.00
59513;BME280;45330;51.634;5.562;2023-01-26T10:26:17;102426.66;;;0.80;100.00
59513;BME280;45330;51.634;5.562;2023-01-26T10:28:44;102452.94;;;0.91;100.00
59513;BME280;45330;51.634;5.562;2023-01-26T10:31:15;102426.97;;;0.84;100.00
59513;BME280;45330;51.634;5.562;2023-01-26T10:33:55;102455.84;;;0.97;100.00
59513;BME280;45330;51.634;5.562;2023-01-26T10:36:22;102455.84;;;0.97;100.00
59513;BME280;45330;51.634;5.562;2023-01-26T10:38:48;102448.53;;;0.88;100.00
59513;BME280;45330;51.634;5.562;2023-01-26T10:44:00;102446.22;;;0.93;100.00
59513;BME280;45330;51.634;5.562;2023-01-26T10:46:37;102466.75;;;1.08;100.00
59513;BME280;45330;51.634;5.562;2023-01-26T10:51:33;102453.97;;;1.23;100.00
59513;BME280;45330;51.634;5.562;2023-01-26T10:54:23;102461.81;;;1.41;100.00
59513;BME280;45330;51.634;5.562;2023-01-26T10:56:51;102429.81;;;1.34;100.00
59513;BME280;45330;51.634;5.562;2023-01-26T11:01:59;102458.19;;;1.67;100.00
59513;BME280;45330;51.634;5.562;2023-01-26T11:04:26;102432.97;;;1.60;100.00
59513;BME280;45330;51.634;5.562;2023-01-26T11:06:51;102428.28;;;1.67;100.00
59513;BME280;45330;51.634;5.562;2023-01-26T11:09:27;102441.06;;;1.82;100.00
59513;BME280;45330;51.634;5.562;2023-01-26T11:12:01;102437.88;;;1.86;100.00
59513;BME280;45330;51.634;5.562;2023-01-26T11:14:29;102428.75;;;1.92;100.00
59513;BME280;45330;51.634;5.562;2023-01-26T11:17:04;102418.34;;;2.05;100.00
59513;BME280;45330;51.634;5.562;2023-01-26T11:22:37;102437.22;;;2.22;100.00
59513;BME280;45330;51.634;5.562;2023-01-26T11:25:26;102449.22;;;2.38;100.00
59513;BME280;45330;51.634;5.562;2023-01-26T11:28:10;102453.97;;;2.47;100.00
59513;BME280;45330;51.634;5.562;2023-01-26T11:36:42;102456.94;;;2.71;100.00
59513;BME280;45330;51.634;5.562;2023-01-26T11:42:28;102438.44;;;2.95;100.00
59513;BME280;45330;51.634;5.562;2023-01-26T11:48:03;102435.41;;;3.20;100.00
59513;BME280;45330;51.634;5.562;2023-01-26T11:56:48;102396.78;;;3.36;100.00
59513;BME280;45330;51.634;5.562;2023-01-26T11:59:20;102429.34;;;3.54;100.00
59513;BME280;45330;51.634;5.562;2023-01-26T12:04:23;102427.31;;;3.65;100.00
59513;BME280;45330;51.634;5.562;2023-01-26T12:06:56;102415.63;;;3.71;100.00
59513;BME280;45330;51.634;5.562;2023-01-26T12:09:37;102397.34;;;3.67;100.00
59513;BME280;45330;51.634;5.562;2023-01-26T12:12:14;102421.47;;;3.87;100.00
59513;BME280;45330;51.634;5.562;2023-01-26T12:15:00;102396.59;;;3.87;100.00
59513;BME280;45330;51.634;5.562;2023-01-26T12:22:54;102407.38;;;4.36;100.00
59513;BME280;45330;51.634;5.562;2023-01-26T12:25:41;102377.34;;;4.36;100.00
59513;BME280;45330;51.634;5.562;2023-01-26T12:28:16;102399.75;;;4.58;100.00
59513;BME280;45330;51.634;5.562;2023-01-26T12:33:25;102377.56;;;4.81;100.00
59513;BME280;45330;51.634;5.562;2023-01-26T12:41:13;102371.22;;;4.94;100.00
59513;BME280;45330;51.634;5.562;2023-01-26T12:43:59;102345.81;;;4.83;100.00
59513;BME280;45330;51.634;5.562;2023-01-26T12:46:30;102358.06;;;4.88;100.00
59513;BME280;45330;51.634;5.562;2023-01-26T12:49:25;102359.81;;;4.89;100.00
59513;BME280;45330;51.634;5.562;2023-01-26T12:52:05;102343.41;;;4.87;100.00
59513;BME280;45330;51.634;5.562;2023-01-26T12:54:38;102329.50;;;5.05;100.00
59513;BME280;45330;51.634;5.562;2023-01-26T12:57:11;102363.56;;;5.40;100.00
59513;BME280;45330;51.634;5.562;2023-01-26T12:59:39;102339.31;;;5.35;100.00
59513;BME280;45330;51.634;5.562;2023-01-26T13:02:23;102333.13;;;5.31;100.00
59513;BME280;45330;51.634;5.562;2023-01-26T13:04:50;102349.75;;;5.38;100.00
59513;BME280;45330;51.634;5.562;2023-01-26T13:07:39;102344.56;;;5.38;100.00
59513;BME280;45330;51.634;5.562;2023-01-26T13:10:09;102348.16;;;5.41;100.00
59513;BME280;45330;51.634;5.562;2023-01-26T13:15:13;102354.72;;;5.33;100.00
59513;BME280;45330;51.634;5.562;2023-01-26T13:18:00;102352.38;;;5.39;100.00
59513;BME280;45330;51.634;5.562;2023-01-26T13:26:16;102361.91;;;5.63;100.00
59513;BME280;45330;51.634;5.562;2023-01-26T13:28:46;102334.25;;;5.60;100.00
59513;BME280;45330;51.634;5.562;2023-01-26T13:31:13;102338.66;;;5.63;100.00
59513;BME280;45330;51.634;5.562;2023-01-26T13:33:52;102341.38;;;5.66;100.00
59513;BME280;45330;51.634;5.562;2023-01-26T13:36:19;102345.47;;;5.61;100.00
59513;BME280;45330;51.634;5.562;2023-01-26T13:38:54;102347.34;;;5.42;100.00
59513;BME280;45330;51.634;5.562;2023-01-26T13:41:23;102332.00;;;5.24;100.00
59513;BME280;45330;51.634;5.562;2023-01-26T13:43:52;102322.81;;;5.10;100.00
59513;BME280;45330;51.634;5.562;2023-01-26T13:46:28;102331.88;;;5.21;100.00
59513;BME280;45330;51.634;5.562;2023-01-26T13:48:56;102317.00;;;5.37;100.00
59513;BME280;45330;51.634;5.562;2023-01-26T13:51:29;102332.16;;;5.73;100.00
59513;BME280;45330;51.634;5.562;2023-01-26T13:54:02;102334.56;;;5.91;100.00
59513;BME280;45330;51.634;5.562;2023-01-26T13:56:33;102331.56;;;6.03;100.00